createdAt,value
2023-03-15T12:37:53.868Z,18.99
2023-03-15T12:40:23.388Z,18.99
2023-03-15T12:42:57.444Z,19.01
2023-03-15T12:45:36.354Z,19.08
2023-03-15T12:48:06.704Z,19.17
2023-03-15T12:50:45.744Z,19.25
2023-03-15T12:53:23.792Z,19.32
2023-03-15T12:55:59.553Z,19.38
2023-03-15T12:58:40.037Z,19.42
2023-03-15T13:01:16.262Z,19.45
2023-03-15T13:03:45.949Z,19.48
2023-03-15T13:06:28.854Z,19.51
2023-03-15T13:09:18.784Z,19.55
2023-03-15T13:12:15.373Z,19.57
2023-03-15T13:15:04.865Z,19.60
2023-03-15T13:18:04.771Z,19.63
2023-03-15T13:20:43.684Z,19.66
2023-03-15T13:23:29.101Z,19.68
2023-03-15T13:26:15.972Z,19.70
2023-03-15T13:29:06.520Z,19.73
2023-03-15T13:31:35.458Z,19.79
2023-03-15T13:34:25.179Z,19.83
2023-03-15T13:37:02.185Z,19.87
2023-03-15T13:39:34.062Z,19.90
2023-03-15T13:42:04.539Z,19.92
2023-03-15T13:44:35.006Z,19.95
2023-03-15T13:47:03.891Z,19.97
2023-03-15T13:49:34.637Z,19.99
2023-03-15T13:52:12.375Z,20.01
2023-03-15T13:54:44.471Z,20.01
2023-03-15T13:57:18.268Z,20.02
2023-03-15T13:59:52.837Z,20.04
2023-03-15T14:02:26.398Z,20.05
2023-03-15T14:05:03.258Z,20.06
2023-03-15T14:07:34.802Z,20.07
2023-03-15T14:10:24.482Z,20.08
2023-03-15T14:12:55.002Z,20.08
2023-03-15T14:15:36.369Z,20.09
2023-03-15T14:18:18.625Z,20.10
2023-03-15T14:21:16.570Z,20.12
2023-03-15T14:23:48.802Z,20.14
2023-03-15T14:26:30.611Z,20.15
2023-03-15T14:29:07.529Z,20.15
2023-03-15T14:31:47.358Z,20.17
2023-03-15T14:34:19.099Z,20.19
2023-03-15T14:36:48.243Z,20.18
2023-03-15T14:39:33.352Z,20.14
2023-03-15T14:42:02.262Z,20.16
2023-03-15T14:44:31.128Z,20.18
2023-03-15T14:47:00.708Z,20.20
2023-03-15T14:49:30.607Z,20.21
2023-03-15T14:52:05.721Z,20.23
2023-03-15T14:54:35.409Z,20.23
2023-03-15T14:57:04.233Z,20.25
2023-03-15T14:59:33.072Z,20.26
2023-03-15T15:02:03.004Z,20.27
2023-03-15T15:04:35.112Z,20.27
2023-03-15T15:07:03.962Z,20.23
2023-03-15T15:09:32.832Z,20.21
2023-03-15T15:12:01.712Z,20.19
2023-03-15T15:14:31.685Z,20.18
2023-03-15T15:17:00.679Z,20.17
2023-03-15T15:20:30.813Z,21.95
2023-03-15T15:25:35.670Z,22.01
2023-03-15T15:28:04.570Z,20.58
2023-03-15T15:30:33.448Z,20.62
2023-03-15T15:33:02.320Z,20.65
2023-03-15T15:35:31.520Z,20.67
2023-03-15T15:38:00.994Z,20.67
2023-03-15T15:40:33.623Z,20.66
2023-03-15T15:43:03.452Z,20.65
2023-03-15T15:45:35.652Z,20.63
2023-03-15T15:48:06.309Z,20.62
2023-03-15T15:50:37.286Z,20.60
2023-03-15T15:53:08.115Z,20.59
2023-03-15T15:55:39.472Z,20.57
2023-03-15T15:58:11.999Z,20.55
2023-03-15T16:00:41.035Z,20.54
2023-03-15T16:03:15.304Z,20.52
2023-03-15T16:05:44.937Z,20.50
2023-03-15T16:08:24.988Z,20.49
2023-03-15T16:10:53.967Z,20.47
2023-03-15T16:13:22.986Z,20.45
2023-03-15T16:15:51.887Z,20.44
2023-03-15T16:18:20.926Z,20.43
2023-03-15T16:20:49.799Z,20.41
2023-03-15T16:23:25.443Z,20.40
2023-03-15T16:25:57.019Z,20.38
2023-03-15T16:29:07.956Z,23.26
2023-03-15T16:31:55.914Z,23.03
2023-03-15T16:34:27.985Z,21.42
2023-03-15T16:36:56.881Z,21.42
2023-03-15T16:39:25.746Z,21.42
2023-03-15T16:41:54.618Z,21.41
2023-03-15T16:44:23.553Z,21.40
2023-03-15T16:46:52.531Z,21.38
2023-03-15T16:49:21.419Z,21.37
2023-03-15T16:51:54.252Z,21.33
2023-03-15T16:54:38.474Z,21.31
2023-03-15T16:57:24.061Z,21.28
2023-03-15T16:59:53.371Z,21.25
2023-03-15T17:02:25.580Z,21.22
2023-03-15T17:04:54.494Z,21.18
2023-03-15T17:07:32.764Z,21.14
2023-03-15T17:10:12.204Z,21.10
2023-03-15T17:12:42.425Z,21.08
2023-03-15T17:15:12.427Z,21.05
2023-03-15T17:17:41.355Z,21.03
2023-03-15T17:20:12.533Z,21.01
2023-03-15T17:22:44.519Z,20.99
2023-03-15T17:25:13.446Z,20.97
2023-03-15T17:27:44.976Z,20.95
2023-03-15T17:30:20.293Z,20.93
2023-03-15T17:32:50.084Z,20.90
2023-03-15T17:35:21.781Z,20.88
2023-03-15T17:37:51.755Z,20.86
2023-03-15T17:40:26.856Z,20.83
2023-03-15T17:42:57.404Z,20.81
2023-03-15T17:45:33.355Z,20.78
2023-03-15T17:48:04.372Z,20.77
2023-03-15T17:50:35.958Z,20.74
2023-03-15T17:53:11.966Z,20.71
2023-03-15T17:55:41.111Z,20.69
2023-03-15T17:58:32.437Z,20.67
2023-03-15T18:01:01.925Z,20.63
2023-03-15T18:03:31.564Z,20.60
2023-03-15T18:06:01.656Z,20.57
2023-03-15T18:08:30.724Z,20.55
2023-03-15T18:11:00.475Z,20.54
2023-03-15T18:13:30.244Z,20.50
2023-03-15T18:15:59.365Z,20.48
2023-03-15T18:18:28.565Z,20.45
2023-03-15T18:20:57.675Z,20.42
2023-03-15T18:23:26.725Z,20.40
2023-03-15T18:25:55.693Z,20.37
2023-03-15T18:28:24.598Z,20.35
2023-03-15T18:30:53.636Z,20.30
2023-03-15T18:33:22.783Z,20.21
2023-03-15T18:35:51.890Z,20.23
2023-03-15T18:38:21.409Z,20.23
2023-03-15T18:40:51.851Z,20.22
2023-03-15T18:43:20.805Z,20.22
2023-03-15T18:45:49.776Z,20.20
2023-03-15T18:48:22.901Z,20.18
2023-03-15T18:50:56.697Z,20.15
2023-03-15T18:53:25.553Z,20.12
2023-03-15T18:55:54.479Z,20.10
2023-03-15T18:58:23.424Z,20.08
2023-03-15T19:00:52.361Z,20.06
2023-03-15T19:03:21.249Z,20.05
2023-03-15T19:05:50.453Z,20.03
2023-03-15T19:08:19.375Z,20.01
2023-03-15T19:10:48.326Z,19.99
2023-03-15T19:13:17.175Z,19.97
2023-03-15T19:15:46.073Z,19.96
2023-03-15T19:18:14.915Z,19.93
2023-03-15T19:20:43.817Z,19.92
2023-03-15T19:23:12.797Z,19.92
2023-03-15T19:25:41.658Z,19.91
2023-03-15T19:28:10.562Z,19.91
2023-03-15T19:30:39.901Z,19.90
2023-03-15T19:33:09.615Z,19.89
2023-03-15T19:35:38.745Z,19.88
2023-03-15T19:38:07.621Z,19.87
2023-03-15T19:40:37.417Z,19.85
2023-03-15T19:43:06.260Z,19.84
2023-03-15T19:45:35.165Z,19.82
2023-03-15T19:48:04.019Z,19.82
2023-03-15T19:50:33.955Z,19.82
2023-03-15T19:53:05.199Z,19.81
2023-03-15T19:55:36.502Z,19.79
2023-03-15T19:58:05.448Z,19.79
2023-03-15T20:00:34.395Z,19.78
2023-03-15T20:03:03.276Z,19.77
2023-03-15T20:05:32.160Z,19.77
2023-03-15T20:08:02.133Z,19.77
2023-03-15T20:10:31.044Z,19.78
2023-03-15T20:12:59.999Z,19.78
2023-03-15T20:15:29.537Z,19.79
2023-03-15T20:17:58.802Z,19.80
2023-03-15T20:20:27.832Z,19.81
2023-03-15T20:22:56.717Z,19.83
2023-03-15T20:25:26.007Z,19.84
2023-03-15T20:27:55.319Z,19.85
2023-03-15T20:30:24.865Z,19.84
2023-03-15T20:32:54.730Z,19.75
2023-03-15T20:35:25.074Z,19.76
2023-03-15T20:37:53.983Z,19.77
2023-03-15T20:40:23.400Z,19.77
2023-03-15T20:42:52.553Z,19.76
2023-03-15T20:45:21.486Z,19.76
2023-03-15T20:47:50.714Z,19.75
2023-03-15T20:50:19.697Z,19.73
2023-03-15T20:52:49.128Z,19.71
2023-03-15T20:55:18.058Z,19.70
2023-03-15T20:57:47.009Z,19.68
2023-03-15T21:00:21.375Z,19.67
2023-03-15T21:02:50.682Z,19.64
2023-03-15T21:05:19.874Z,19.62
2023-03-15T21:07:49.045Z,19.60
2023-03-15T21:10:18.224Z,19.60
2023-03-15T21:12:47.328Z,19.58
2023-03-15T21:15:19.161Z,19.57
2023-03-15T21:17:49.733Z,19.55
2023-03-15T21:20:19.668Z,19.53
2023-03-15T21:22:48.821Z,19.52
2023-03-15T21:25:17.801Z,19.51
2023-03-15T21:27:47.492Z,19.50
2023-03-15T21:30:16.643Z,19.48
2023-03-15T21:32:45.946Z,19.47
2023-03-15T21:35:17.507Z,19.46
2023-03-15T21:37:47.311Z,19.45
2023-03-15T21:40:17.383Z,19.44
2023-03-15T21:42:47.992Z,19.44
2023-03-15T21:45:17.250Z,19.43
2023-03-15T21:47:47.240Z,19.43
2023-03-15T21:50:16.646Z,19.42
2023-03-15T21:52:45.601Z,19.42
2023-03-15T21:55:15.463Z,19.42
2023-03-15T21:57:45.061Z,19.41
2023-03-15T22:00:19.971Z,19.41
2023-03-15T22:02:49.433Z,19.40
2023-03-15T22:05:18.340Z,19.40
2023-03-15T22:07:47.283Z,19.40
2023-03-15T22:10:17.142Z,19.40
2023-03-15T22:12:46.077Z,19.40
2023-03-15T22:15:15.532Z,19.41
2023-03-15T22:17:45.181Z,19.40
2023-03-15T22:20:18.446Z,19.40
2023-03-15T22:22:51.587Z,19.40
2023-03-15T22:25:20.537Z,19.39
2023-03-15T22:27:49.422Z,19.38
2023-03-15T22:30:18.975Z,19.37
2023-03-15T22:32:47.927Z,19.30
2023-03-15T22:35:18.216Z,19.30
2023-03-15T22:37:47.253Z,19.30
2023-03-15T22:40:17.167Z,19.30
2023-03-15T22:42:46.996Z,19.29
2023-03-15T22:45:16.174Z,19.29
2023-03-15T22:47:45.056Z,19.27
2023-03-15T22:50:14.702Z,19.27
2023-03-15T22:52:44.111Z,19.26
2023-03-15T22:55:13.194Z,19.25
2023-03-15T22:57:42.062Z,19.23
2023-03-15T23:00:14.142Z,19.22
2023-03-15T23:02:46.358Z,19.21
2023-03-15T23:05:15.917Z,19.20
2023-03-15T23:07:45.126Z,19.18
2023-03-15T23:10:14.737Z,19.16
2023-03-15T23:12:43.985Z,19.14
2023-03-15T23:15:14.642Z,19.12
2023-03-15T23:17:47.057Z,19.11
2023-03-15T23:20:19.009Z,19.09
2023-03-15T23:22:49.374Z,19.08
2023-03-15T23:25:21.558Z,19.05
2023-03-15T23:27:51.393Z,19.03
2023-03-15T23:30:20.444Z,19.00
2023-03-15T23:32:57.634Z,18.96
2023-03-15T23:35:27.598Z,18.94
2023-03-15T23:37:56.968Z,18.92
2023-03-15T23:40:26.525Z,18.90
2023-03-15T23:42:59.209Z,18.87
2023-03-15T23:45:30.224Z,18.84
2023-03-15T23:47:59.749Z,18.82
2023-03-15T23:50:28.922Z,18.79
2023-03-15T23:52:58.218Z,18.75
2023-03-15T23:55:27.152Z,18.73
2023-03-15T23:57:56.017Z,18.71
